sensor_id;sensor_type;location;lat;lon;timestamp;temperature;humidity
27540;DHT22;15906;52.046;4.724;2023-04-24T20:53:51;7.90;99.90
27540;DHT22;15906;52.046;4.724;2023-04-24T20:56:17;7.70;99.90
27540;DHT22;15906;52.046;4.724;2023-04-24T20:59:23;8.70;99.90
27540;DHT22;15906;52.046;4.724;2023-04-24T21:01:48;8.70;99.90
27540;DHT22;15906;52.046;4.724;2023-04-24T21:04:15;8.40;99.90
27540;DHT22;15906;52.046;4.724;2023-04-24T21:06:40;8.20;99.90
27540;DHT22;15906;52.046;4.724;2023-04-24T21:09:06;8.10;99.90
27540;DHT22;15906;52.046;4.724;2023-04-24T21:11:33;8.00;99.90
27540;DHT22;15906;52.046;4.724;2023-04-24T21:13:59;8.00;99.90
27540;DHT22;15906;52.046;4.724;2023-04-24T21:16:25;7.90;99.90
27540;DHT22;15906;52.046;4.724;2023-04-24T21:18:50;7.80;99.90
27540;DHT22;15906;52.046;4.724;2023-04-24T21:21:16;7.80;99.90
27540;DHT22;15906;52.046;4.724;2023-04-24T21:23:41;7.80;99.90
27540;DHT22;15906;52.046;4.724;2023-04-24T21:26:07;7.80;99.90
27540;DHT22;15906;52.046;4.724;2023-04-24T21:28:32;7.80;99.90
27540;DHT22;15906;52.046;4.724;2023-04-24T21:30:58;7.70;99.90
27540;DHT22;15906;52.046;4.724;2023-04-24T21:33:24;7.70;99.90
27540;DHT22;15906;52.046;4.724;2023-04-24T21:35:49;7.70;99.90
27540;DHT22;15906;52.046;4.724;2023-04-24T21:38:15;7.60;99.90
27540;DHT22;15906;52.046;4.724;2023-04-24T21:40:44;7.60;99.90
27540;DHT22;15906;52.046;4.724;2023-04-24T21:43:09;7.50;99.90
27540;DHT22;15906;52.046;4.724;2023-04-24T21:45:36;7.50;99.90
27540;DHT22;15906;52.046;4.724;2023-04-24T21:48:02;7.50;99.90
27540;DHT22;15906;52.046;4.724;2023-04-24T21:50:27;7.40;99.90
27540;DHT22;15906;52.046;4.724;2023-04-24T21:52:53;7.40;99.90
27540;DHT22;15906;52.046;4.724;2023-04-24T21:55:18;7.30;99.90
27540;DHT22;15906;52.046;4.724;2023-04-24T21:57:45;7.30;99.90
27540;DHT22;15906;52.046;4.724;2023-04-24T22:00:11;7.30;99.90
27540;DHT22;15906;52.046;4.724;2023-04-24T22:02:37;7.20;99.90
27540;DHT22;15906;52.046;4.724;2023-04-24T22:05:04;7.20;99.90
27540;DHT22;15906;52.046;4.724;2023-04-24T22:07:32;7.30;99.90
27540;DHT22;15906;52.046;4.724;2023-04-24T22:09:58;7.10;99.90
27540;DHT22;15906;52.046;4.724;2023-04-24T22:12:24;7.10;99.90
27540;DHT22;15906;52.046;4.724;2023-04-24T22:14:49;7.10;99.90
27540;DHT22;15906;52.046;4.724;2023-04-24T22:17:15;7.00;99.90
27540;DHT22;15906;52.046;4.724;2023-04-24T22:19:41;7.00;99.90
27540;DHT22;15906;52.046;4.724;2023-04-24T22:22:08;7.00;99.90
27540;DHT22;15906;52.046;4.724;2023-04-24T22:24:34;7.00;99.90
27540;DHT22;15906;52.046;4.724;2023-04-24T22:26:59;7.00;99.90
27540;DHT22;15906;52.046;4.724;2023-04-24T22:29:25;7.00;99.90
27540;DHT22;15906;52.046;4.724;2023-04-24T22:31:51;7.00;99.90
27540;DHT22;15906;52.046;4.724;2023-04-24T22:34:20;6.90;99.90
27540;DHT22;15906;52.046;4.724;2023-04-24T22:36:45;6.90;99.90
27540;DHT22;15906;52.046;4.724;2023-04-24T22:39:11;6.80;99.90
27540;DHT22;15906;52.046;4.724;2023-04-24T22:41:40;6.80;99.90
27540;DHT22;15906;52.046;4.724;2023-04-24T22:44:06;6.90;99.90
27540;DHT22;15906;52.046;4.724;2023-04-24T22:46:31;6.80;99.90
27540;DHT22;15906;52.046;4.724;2023-04-24T22:48:57;6.80;99.90
27540;DHT22;15906;52.046;4.724;2023-04-24T22:51:22;6.80;99.90
27540;DHT22;15906;52.046;4.724;2023-04-24T22:53:48;6.80;99.90
27540;DHT22;15906;52.046;4.724;2023-04-24T22:56:14;6.80;99.90
27540;DHT22;15906;52.046;4.724;2023-04-24T22:58:39;6.70;99.90
27540;DHT22;15906;52.046;4.724;2023-04-24T23:01:05;6.70;99.90
27540;DHT22;15906;52.046;4.724;2023-04-24T23:03:31;6.70;99.90
27540;DHT22;15906;52.046;4.724;2023-04-24T23:05:57;6.70;99.90
27540;DHT22;15906;52.046;4.724;2023-04-24T23:08:23;6.60;99.90
27540;DHT22;15906;52.046;4.724;2023-04-24T23:10:48;6.70;99.90
27540;DHT22;15906;52.046;4.724;2023-04-24T23:13:14;6.50;99.90
27540;DHT22;15906;52.046;4.724;2023-04-24T23:15:39;6.50;99.90
27540;DHT22;15906;52.046;4.724;2023-04-24T23:18:06;6.50;99.90
27540;DHT22;15906;52.046;4.724;2023-04-24T23:20:31;6.40;99.90
27540;DHT22;15906;52.046;4.724;2023-04-24T23:22:57;6.40;99.90
27540;DHT22;15906;52.046;4.724;2023-04-24T23:25:23;6.40;99.90
27540;DHT22;15906;52.046;4.724;2023-04-24T23:27:48;6.50;99.90
27540;DHT22;15906;52.046;4.724;2023-04-24T23:30:14;6.50;99.90
27540;DHT22;15906;52.046;4.724;2023-04-24T23:32:39;6.40;99.90
27540;DHT22;15906;52.046;4.724;2023-04-24T23:35:05;6.40;99.90
27540;DHT22;15906;52.046;4.724;2023-04-24T23:37:30;6.40;99.90
27540;DHT22;15906;52.046;4.724;2023-04-24T23:39:56;6.50;99.90
27540;DHT22;15906;52.046;4.724;2023-04-24T23:42:22;6.50;99.90
27540;DHT22;15906;52.046;4.724;2023-04-24T23:44:47;6.40;99.90
27540;DHT22;15906;52.046;4.724;2023-04-24T23:47:13;6.50;99.90
27540;DHT22;15906;52.046;4.724;2023-04-24T23:49:38;6.40;99.90
27540;DHT22;15906;52.046;4.724;2023-04-24T23:52:04;6.40;99.90
27540;DHT22;15906;52.046;4.724;2023-04-24T23:54:30;6.40;99.90
27540;DHT22;15906;52.046;4.724;2023-04-24T23:56:55;6.30;99.90
27540;DHT22;15906;52.046;4.724;2023-04-24T23:59:21;6.30;99.90
